createdAt,value
2022-12-06T00:01:22.844Z,10.48
2022-12-06T00:06:18.789Z,10.18
2022-12-06T00:11:43.661Z,9.38
2022-12-06T00:16:37.434Z,10.27
2022-12-06T00:21:38.087Z,9.52
2022-12-06T00:26:31.564Z,10.32
2022-12-06T00:31:26.550Z,10.43
2022-12-06T00:36:25.869Z,10.32
2022-12-06T00:41:21.369Z,9.88
2022-12-06T00:46:18.215Z,9.88
2022-12-06T00:51:12.018Z,9.45
2022-12-06T00:56:06.726Z,9.57
2022-12-06T01:01:13.197Z,10.35
2022-12-06T01:06:09.019Z,10.18
2022-12-06T01:11:03.998Z,11.73
2022-12-06T01:15:57.619Z,9.52
2022-12-06T01:20:50.833Z,10.63
2022-12-06T01:25:54.912Z,10.18
2022-12-06T01:30:49.565Z,10.63
2022-12-06T01:35:44.195Z,9.82
2022-12-06T01:40:57.679Z,9.65
2022-12-06T01:45:51.611Z,10.52
2022-12-06T01:50:45.177Z,9.85
2022-12-06T01:55:40.690Z,10.93
2022-12-06T02:00:33.983Z,10.90
2022-12-06T02:05:27.174Z,10.63
2022-12-06T02:10:20.764Z,9.60
2022-12-06T02:15:17.815Z,11.20
2022-12-06T02:20:19.937Z,11.05
2022-12-06T02:25:50.684Z,10.95
2022-12-06T02:31:00.328Z,11.10
2022-12-06T02:36:05.711Z,11.10
2022-12-06T02:41:02.632Z,9.80
2022-12-06T02:45:58.049Z,9.60
2022-12-06T02:51:15.122Z,10.13
2022-12-06T02:56:09.832Z,9.20
2022-12-06T03:01:05.554Z,10.32
2022-12-06T03:06:04.496Z,10.13
2022-12-06T03:11:02.204Z,10.43
2022-12-06T03:16:07.801Z,10.32
2022-12-06T03:21:09.510Z,10.55
2022-12-06T03:26:04.896Z,10.75
2022-12-06T03:31:04.248Z,10.95
2022-12-06T03:40:52.826Z,10.65
2022-12-06T03:46:17.814Z,10.63
2022-12-06T03:51:14.574Z,10.75
2022-12-06T03:56:11.886Z,10.15
2022-12-06T04:01:06.104Z,10.82
2022-12-06T04:06:01.907Z,10.85
2022-12-06T04:10:56.177Z,10.77
2022-12-06T04:15:50.167Z,12.30
2022-12-06T04:21:08.116Z,10.00
2022-12-06T04:26:01.953Z,11.00
2022-12-06T04:31:18.571Z,11.38
2022-12-06T04:36:33.539Z,11.13
2022-12-06T04:41:45.666Z,9.93
2022-12-06T04:46:39.602Z,11.75
2022-12-06T04:51:32.901Z,10.48
2022-12-06T04:56:26.929Z,10.77
2022-12-06T05:01:19.958Z,10.50
2022-12-06T05:06:13.550Z,10.20
2022-12-06T05:11:07.604Z,11.35
2022-12-06T05:16:03.581Z,11.13
2022-12-06T05:21:06.544Z,10.90
2022-12-06T05:26:04.046Z,10.82
2022-12-06T05:30:57.528Z,11.10
2022-12-06T05:35:50.764Z,10.70
2022-12-06T05:40:45.321Z,11.60
2022-12-06T05:45:39.403Z,11.07
2022-12-06T05:50:32.819Z,11.43
2022-12-06T05:55:26.578Z,11.05
2022-12-06T06:00:20.894Z,11.18
2022-12-06T06:05:15.149Z,11.18
2022-12-06T06:10:09.157Z,11.38
2022-12-06T06:15:02.637Z,9.93
2022-12-06T06:19:56.413Z,12.18
2022-12-06T06:24:50.055Z,11.70
2022-12-06T06:29:45.460Z,12.75
2022-12-06T06:34:38.736Z,12.30
2022-12-06T06:39:32.862Z,12.77
2022-12-06T06:44:27.185Z,13.63
2022-12-06T06:49:20.312Z,13.98
2022-12-06T06:54:14.072Z,12.88
2022-12-06T06:59:07.657Z,13.00
2022-12-06T07:04:01.987Z,14.05
2022-12-06T07:08:55.893Z,12.40
2022-12-06T07:13:52.787Z,12.55
2022-12-06T07:18:47.782Z,13.25
2022-12-06T07:23:41.791Z,13.50
2022-12-06T07:28:42.853Z,11.35
2022-12-06T07:33:37.087Z,14.15
2022-12-06T07:38:30.860Z,12.07
2022-12-06T07:43:43.000Z,12.60
2022-12-06T07:48:36.316Z,12.48
2022-12-06T07:53:30.135Z,11.63
2022-12-06T07:58:24.526Z,11.05
2022-12-06T08:03:18.114Z,12.50
2022-12-06T08:08:12.417Z,11.88
2022-12-06T08:13:06.771Z,10.57
2022-12-06T08:18:00.947Z,9.02
2022-12-06T08:22:54.297Z,10.02
2022-12-06T08:27:48.677Z,9.93
2022-12-06T08:32:41.636Z,8.30
2022-12-06T08:37:35.992Z,8.98
2022-12-06T08:42:30.331Z,8.30
2022-12-06T08:47:24.564Z,9.13
2022-12-06T08:52:18.464Z,8.27
2022-12-06T08:57:11.359Z,7.68
2022-12-06T09:02:05.648Z,8.68
2022-12-06T09:06:59.982Z,7.22
2022-12-06T09:11:54.140Z,8.98
2022-12-06T09:16:47.746Z,7.53
2022-12-06T09:21:43.325Z,7.88
2022-12-06T09:26:36.393Z,7.68
2022-12-06T09:31:30.098Z,8.60
2022-12-06T09:36:24.303Z,8.30
2022-12-06T09:41:38.600Z,8.13
2022-12-06T09:46:50.368Z,7.72
2022-12-06T09:51:56.756Z,6.75
2022-12-06T09:56:59.196Z,6.90
2022-12-06T10:02:02.409Z,7.25
2022-12-06T10:07:20.157Z,8.05
2022-12-06T10:12:31.180Z,6.95
2022-12-06T10:17:33.410Z,7.20
2022-12-06T10:22:48.403Z,7.30
2022-12-06T10:28:00.240Z,7.45
2022-12-06T10:33:22.752Z,7.88
2022-12-06T10:38:21.787Z,9.38
2022-12-06T10:43:34.650Z,8.48
2022-12-06T10:48:37.683Z,7.72
2022-12-06T10:53:34.227Z,8.07
2022-12-06T10:58:42.881Z,8.45
2022-12-06T11:03:55.482Z,9.55
2022-12-06T11:08:57.321Z,8.48
2022-12-06T11:13:56.901Z,9.70
2022-12-06T11:18:50.649Z,8.43
2022-12-06T11:24:09.078Z,8.70
2022-12-06T11:29:07.935Z,9.38
2022-12-06T11:34:01.841Z,7.90
2022-12-06T11:38:55.244Z,7.70
2022-12-06T11:43:49.710Z,7.50
2022-12-06T11:48:44.025Z,8.90
2022-12-06T11:53:45.103Z,7.47
2022-12-06T11:58:47.478Z,8.63
2022-12-06T12:03:44.454Z,9.07
2022-12-06T12:08:38.003Z,8.98
2022-12-06T12:13:47.417Z,8.25
2022-12-06T12:18:51.106Z,8.40
2022-12-06T12:23:48.141Z,10.15
2022-12-06T12:28:42.207Z,11.50
2022-12-06T12:33:36.644Z,11.07
2022-12-06T12:38:38.708Z,12.27
2022-12-06T12:43:34.222Z,11.38
2022-12-06T12:48:29.462Z,13.90
2022-12-06T12:53:37.155Z,12.68
2022-12-06T12:58:35.743Z,12.05
2022-12-06T13:08:43.169Z,12.02
2022-12-06T13:13:41.522Z,11.23
2022-12-06T13:18:49.838Z,10.48
2022-12-06T13:23:43.931Z,10.98
2022-12-06T13:28:41.491Z,11.07
2022-12-06T13:33:35.446Z,11.35
2022-12-06T13:38:34.545Z,11.77
2022-12-06T13:48:46.544Z,11.77
2022-12-06T13:54:24.387Z,13.27
2022-12-06T13:59:17.628Z,14.43
2022-12-06T14:04:45.680Z,12.18
2022-12-06T14:09:45.537Z,14.70
2022-12-06T14:14:39.471Z,15.77
2022-12-06T14:19:41.197Z,16.63
2022-12-06T14:24:42.447Z,16.30
2022-12-06T14:29:39.586Z,16.55
2022-12-06T14:34:35.568Z,15.98
2022-12-06T14:39:33.782Z,18.02
2022-12-06T14:44:32.551Z,18.70
2022-12-06T14:49:45.021Z,18.38
2022-12-06T14:54:45.219Z,17.27
2022-12-06T15:00:13.580Z,18.48
2022-12-06T15:04:52.615Z,17.55
2022-12-06T15:09:47.620Z,20.05
2022-12-06T15:14:40.852Z,18.08
2022-12-06T15:19:35.029Z,20.10
2022-12-06T15:24:28.909Z,18.80
2022-12-06T15:29:22.835Z,18.10
2022-12-06T15:34:35.662Z,19.55
2022-12-06T15:39:30.066Z,20.05
2022-12-06T15:44:26.442Z,20.50
2022-12-06T15:49:27.445Z,21.02
2022-12-06T15:54:23.908Z,19.30
2022-12-06T15:59:17.999Z,18.08
2022-12-06T16:04:35.550Z,22.55
2022-12-06T16:09:29.325Z,24.30
2022-12-06T16:14:23.438Z,23.95
2022-12-06T16:19:16.915Z,22.73
2022-12-06T16:24:14.745Z,21.10
2022-12-06T16:29:10.653Z,19.05
2022-12-06T16:34:04.682Z,21.70
2022-12-06T16:39:02.196Z,21.13
2022-12-06T16:43:56.644Z,22.02
2022-12-06T16:48:55.663Z,19.80
2022-12-06T16:53:50.255Z,20.48
2022-12-06T16:58:43.510Z,21.45
2022-12-06T17:03:37.795Z,18.85
2022-12-06T17:08:31.799Z,25.05
2022-12-06T17:13:25.772Z,25.10
2022-12-06T17:18:19.851Z,23.10
2022-12-06T17:23:13.326Z,24.83
2022-12-06T17:28:07.493Z,27.52
2022-12-06T17:33:01.144Z,28.35
2022-12-06T17:37:54.670Z,30.73
2022-12-06T17:43:03.001Z,25.67
2022-12-06T17:47:55.036Z,27.08
2022-12-06T17:52:49.331Z,23.38
2022-12-06T17:57:43.204Z,28.23
2022-12-06T18:02:36.502Z,25.95
2022-12-06T18:07:30.862Z,30.70
2022-12-06T18:12:24.367Z,29.30
2022-12-06T18:17:18.755Z,27.75
2022-12-06T18:22:11.916Z,25.70
2022-12-06T18:27:07.134Z,25.17
2022-12-06T18:32:00.756Z,24.95
2022-12-06T18:36:54.714Z,25.52
2022-12-06T18:41:48.201Z,24.20
2022-12-06T18:46:43.012Z,23.42
2022-12-06T18:51:36.950Z,24.45
2022-12-06T18:56:30.869Z,32.67
2022-12-06T19:01:28.411Z,23.35
2022-12-06T19:06:24.979Z,26.02
2022-12-06T19:11:19.583Z,21.80
2022-12-06T19:16:13.304Z,23.73
2022-12-06T19:21:07.410Z,22.70
2022-12-06T19:26:01.959Z,24.40
2022-12-06T19:31:03.063Z,23.15
2022-12-06T19:36:02.743Z,22.70
2022-12-06T19:45:49.166Z,23.35
2022-12-06T19:50:42.634Z,23.85
2022-12-06T19:55:36.812Z,24.58
2022-12-06T20:00:30.825Z,28.05
2022-12-06T20:05:23.895Z,25.33
2022-12-06T20:10:17.885Z,23.52
2022-12-06T20:15:14.462Z,23.95
2022-12-06T20:20:09.762Z,25.55
2022-12-06T20:25:04.288Z,25.48
2022-12-06T20:29:58.685Z,26.00
2022-12-06T20:34:52.410Z,25.27
2022-12-06T20:39:46.365Z,26.55
2022-12-06T20:44:40.334Z,26.70
2022-12-06T20:49:34.268Z,24.98
2022-12-06T20:54:28.531Z,27.20
2022-12-06T20:59:22.169Z,26.13
2022-12-06T21:04:16.643Z,27.40
2022-12-06T21:09:10.130Z,27.55
2022-12-06T21:14:04.546Z,25.80
2022-12-06T21:19:03.095Z,24.35
2022-12-06T21:23:59.993Z,26.27
2022-12-06T21:28:54.149Z,26.35
2022-12-06T21:33:47.988Z,29.13
2022-12-06T21:38:42.986Z,26.92
2022-12-06T21:43:36.969Z,26.33
2022-12-06T21:48:31.133Z,22.67
2022-12-06T21:53:24.626Z,26.42
2022-12-06T21:58:17.984Z,29.42
2022-12-06T22:03:15.219Z,29.92
2022-12-06T22:08:11.529Z,26.52
2022-12-06T22:13:05.741Z,26.67
2022-12-06T22:17:59.739Z,28.48
2022-12-06T22:22:53.626Z,27.77
2022-12-06T22:27:47.498Z,27.13
2022-12-06T22:32:41.806Z,29.52
2022-12-06T22:37:35.708Z,29.05
2022-12-06T22:42:28.875Z,29.38
2022-12-06T22:47:23.101Z,27.38
2022-12-06T22:52:16.590Z,28.67
2022-12-06T22:57:10.513Z,28.83
2022-12-06T23:02:04.116Z,29.15
2022-12-06T23:06:58.552Z,31.15
2022-12-06T23:11:52.883Z,29.27
2022-12-06T23:16:47.493Z,28.27
2022-12-06T23:21:42.691Z,30.67
2022-12-06T23:26:39.306Z,30.83
2022-12-06T23:31:35.082Z,29.40
2022-12-06T23:36:30.465Z,28.55
2022-12-06T23:41:28.852Z,27.67
2022-12-06T23:46:23.494Z,28.40
2022-12-06T23:51:18.525Z,29.15
2022-12-06T23:56:14.018Z,29.75
